createdAt,value
2023-01-21T00:01:42.452Z,95958.50
2023-01-21T00:04:12.341Z,95968.03
2023-01-21T00:06:41.044Z,95969.69
2023-01-21T00:09:10.909Z,95966.47
2023-01-21T00:11:40.544Z,95962.19
2023-01-21T00:14:09.483Z,95960.38
2023-01-21T00:16:44.399Z,95961.31
2023-01-21T00:19:14.667Z,95954.66
2023-01-21T00:21:43.346Z,95963.31
2023-01-21T00:24:11.871Z,95960.84
2023-01-21T00:26:42.990Z,95961.06
2023-01-21T00:29:12.478Z,95968.00
2023-01-21T00:31:45.585Z,95964.69
2023-01-21T00:34:15.970Z,95963.94
2023-01-21T00:36:44.852Z,95964.13
2023-01-21T00:39:13.848Z,95959.97
2023-01-21T00:42:00.596Z,95957.53
2023-01-21T00:44:29.288Z,95964.31
2023-01-21T00:46:57.973Z,95963.53
2023-01-21T00:49:27.917Z,95959.84
2023-01-21T00:51:56.798Z,95958.25
2023-01-21T00:54:27.921Z,95946.59
2023-01-21T00:56:57.222Z,95926.94
2023-01-21T00:59:27.553Z,95951.34
2023-01-21T01:01:56.516Z,95948.25
2023-01-21T01:04:25.020Z,95956.25
2023-01-21T01:06:55.681Z,95952.97
2023-01-21T01:09:24.688Z,95955.47
2023-01-21T01:11:54.066Z,95948.00
2023-01-21T01:14:22.819Z,95959.72
2023-01-21T01:16:52.001Z,95954.84
2023-01-21T01:19:20.859Z,95956.38
2023-01-21T01:21:49.409Z,95951.41
2023-01-21T01:24:19.461Z,95953.81
2023-01-21T01:26:48.124Z,95949.78
2023-01-21T01:29:16.728Z,95950.53
2023-01-21T01:31:45.751Z,95947.22
2023-01-21T01:34:14.357Z,95949.66
2023-01-21T01:36:43.503Z,95941.16
2023-01-21T01:39:12.342Z,95942.88
2023-01-21T01:41:42.879Z,95948.00
2023-01-21T01:44:46.161Z,95937.41
2023-01-21T01:47:15.297Z,95906.13
2023-01-21T01:49:44.357Z,95941.56
2023-01-21T01:52:14.160Z,95936.66
2023-01-21T01:54:45.792Z,95932.63
2023-01-21T01:57:21.232Z,95931.03
2023-01-21T01:59:50.896Z,95927.53
2023-01-21T02:02:21.289Z,95926.06
2023-01-21T02:04:52.839Z,95930.25
2023-01-21T02:07:33.390Z,95880.84
2023-01-21T02:10:04.381Z,95922.06
2023-01-21T02:12:34.933Z,95918.72
2023-01-21T02:15:24.578Z,95926.19
2023-01-21T02:18:01.685Z,95923.09
2023-01-21T02:21:04.577Z,95921.47
2023-01-21T02:23:48.069Z,95915.03
2023-01-21T02:26:42.951Z,95915.97
2023-01-21T02:29:56.585Z,95908.69
2023-01-21T02:32:54.241Z,95919.47
2023-01-21T02:35:26.376Z,95916.25
2023-01-21T02:37:58.818Z,95919.53
2023-01-21T02:40:30.875Z,95906.25
2023-01-21T02:43:03.229Z,95907.53
2023-01-21T02:45:37.329Z,95908.69
2023-01-21T02:48:09.726Z,95905.28
2023-01-21T02:50:43.751Z,95915.34
2023-01-21T02:53:24.827Z,95902.91
2023-01-21T02:55:54.127Z,95899.53
2023-01-21T02:58:27.611Z,95888.53
2023-01-21T03:01:03.656Z,95900.06
2023-01-21T03:04:05.348Z,95900.88
2023-01-21T03:06:51.486Z,95889.00
2023-01-21T03:09:23.658Z,95883.81
2023-01-21T03:12:03.030Z,95886.16
2023-01-21T03:14:51.501Z,95881.00
2023-01-21T03:17:24.646Z,95876.63
2023-01-21T03:19:57.000Z,95880.00
2023-01-21T03:22:35.845Z,95878.91
2023-01-21T03:25:08.540Z,95879.72
2023-01-21T03:27:39.516Z,95881.03
2023-01-21T03:30:14.161Z,95878.44
2023-01-21T03:32:45.106Z,95863.00
2023-01-21T03:35:18.354Z,95879.22
2023-01-21T03:37:53.081Z,95877.56
2023-01-21T03:40:25.240Z,95882.53
2023-01-21T03:42:56.571Z,95873.97
2023-01-21T03:45:36.164Z,95876.44
2023-01-21T03:48:15.691Z,95878.19
2023-01-21T03:50:47.615Z,95880.78
2023-01-21T03:53:17.882Z,95876.44
2023-01-21T03:55:46.511Z,95878.16
2023-01-21T03:58:15.207Z,95873.50
2023-01-21T04:00:45.312Z,95876.16
2023-01-21T04:03:14.371Z,95878.16
2023-01-21T04:05:43.238Z,95875.69
2023-01-21T04:08:11.948Z,95871.53
2023-01-21T04:10:44.912Z,95873.97
2023-01-21T04:13:16.430Z,95871.78
2023-01-21T04:15:47.258Z,95873.47
2023-01-21T04:18:16.102Z,95869.22
2023-01-21T04:20:46.779Z,95858.38
2023-01-21T04:23:15.674Z,95867.31
2023-01-21T04:25:45.508Z,95872.81
2023-01-21T04:28:14.237Z,95873.78
2023-01-21T04:30:43.184Z,95880.19
2023-01-21T04:33:12.076Z,95880.38
2023-01-21T04:35:40.525Z,95877.03
2023-01-21T04:38:09.313Z,95881.94
2023-01-21T04:40:37.920Z,95886.19
2023-01-21T04:43:07.949Z,95890.38
2023-01-21T04:45:38.605Z,95898.91
2023-01-21T04:48:07.922Z,95885.56
2023-01-21T04:50:36.790Z,95901.97
2023-01-21T04:53:05.678Z,95897.94
2023-01-21T04:55:34.641Z,95895.47
2023-01-21T04:58:03.330Z,95903.59
2023-01-21T05:00:33.872Z,95908.63
2023-01-21T05:03:03.049Z,95900.38
2023-01-21T05:05:31.680Z,95907.09
2023-01-21T05:08:00.550Z,95899.91
2023-01-21T05:10:29.249Z,95887.69
2023-01-21T05:12:57.818Z,95894.88
2023-01-21T05:15:26.293Z,95900.91
2023-01-21T05:17:56.066Z,95895.63
2023-01-21T05:20:24.648Z,95893.88
2023-01-21T05:23:00.918Z,95897.50
2023-01-21T05:25:29.801Z,95896.63
2023-01-21T05:28:03.258Z,95894.06
2023-01-21T05:30:32.051Z,95897.50
2023-01-21T05:33:02.931Z,95897.44
2023-01-21T05:35:31.466Z,95899.03
2023-01-21T05:38:00.582Z,95909.22
2023-01-21T05:40:29.431Z,95905.88
2023-01-21T05:42:58.128Z,95904.06
2023-01-21T05:45:26.540Z,95909.28
2023-01-21T05:48:02.293Z,95912.59
2023-01-21T05:50:32.875Z,95921.84
2023-01-21T05:53:01.365Z,95920.31
2023-01-21T05:55:30.072Z,95911.28
2023-01-21T05:57:58.854Z,95917.75
2023-01-21T06:00:27.733Z,95923.59
2023-01-21T06:02:59.060Z,95926.88
2023-01-21T06:05:29.411Z,95924.56
2023-01-21T06:07:58.227Z,95924.38
2023-01-21T06:10:26.806Z,95922.59
2023-01-21T06:12:56.120Z,95922.59
2023-01-21T06:15:25.957Z,95926.06
2023-01-21T06:17:54.513Z,95929.41
2023-01-21T06:20:23.471Z,95925.94
2023-01-21T06:22:53.529Z,95931.09
2023-01-21T06:25:22.457Z,95940.06
2023-01-21T06:27:50.934Z,95938.56
2023-01-21T06:30:20.154Z,95942.78
2023-01-21T06:32:48.583Z,95938.81
2023-01-21T06:35:17.370Z,95944.44
2023-01-21T06:37:46.426Z,95942.78
2023-01-21T06:40:17.671Z,95952.75
2023-01-21T06:42:47.976Z,95952.78
2023-01-21T06:45:17.189Z,95955.19
2023-01-21T06:47:46.655Z,95968.63
2023-01-21T06:50:16.818Z,95956.88
2023-01-21T06:52:47.161Z,95964.44
2023-01-21T06:55:17.944Z,95956.13
2023-01-21T06:57:46.622Z,95966.13
2023-01-21T07:00:15.962Z,95972.88
2023-01-21T07:02:45.490Z,95974.44
2023-01-21T07:05:15.483Z,95965.31
2023-01-21T07:07:44.992Z,95968.94
2023-01-21T07:10:13.458Z,95977.78
2023-01-21T07:12:43.627Z,95983.59
2023-01-21T07:15:12.310Z,95982.81
2023-01-21T07:17:41.379Z,95980.41
2023-01-21T07:20:12.516Z,95981.13
2023-01-21T07:22:41.440Z,95982.03
2023-01-21T07:25:10.702Z,95986.19
2023-01-21T07:27:39.662Z,95988.69
2023-01-21T07:30:12.348Z,95997.78
2023-01-21T07:32:40.761Z,95993.00
2023-01-21T07:35:10.534Z,95992.81
2023-01-21T07:37:38.920Z,96001.41
2023-01-21T07:40:08.723Z,95996.47
2023-01-21T07:42:37.234Z,95999.19
2023-01-21T07:45:06.360Z,96001.06
2023-01-21T07:47:36.317Z,95997.81
2023-01-21T07:50:08.799Z,95998.28
2023-01-21T07:52:37.943Z,95998.53
2023-01-21T07:55:08.096Z,95989.19
2023-01-21T07:57:36.818Z,95990.41
2023-01-21T08:00:06.529Z,96001.19
2023-01-21T08:02:44.915Z,95997.56
2023-01-21T08:05:13.768Z,95994.56
2023-01-21T08:07:42.493Z,95998.25
2023-01-21T08:10:12.097Z,96000.53
2023-01-21T08:12:43.017Z,96008.19
2023-01-21T08:15:12.624Z,96005.44
2023-01-21T08:17:44.214Z,96011.19
2023-01-21T08:20:14.085Z,96013.78
2023-01-21T08:22:42.727Z,96011.34
2023-01-21T08:25:12.087Z,96007.03
2023-01-21T08:27:40.862Z,96003.41
2023-01-21T08:30:11.555Z,96006.50
2023-01-21T08:32:43.413Z,96008.59
2023-01-21T08:35:19.218Z,96011.75
2023-01-21T08:37:48.558Z,96013.28
2023-01-21T08:40:17.945Z,96019.88
2023-01-21T08:42:46.537Z,96022.19
2023-01-21T08:45:16.122Z,96026.34
2023-01-21T08:47:44.861Z,96025.03
2023-01-21T08:50:13.938Z,96032.19
2023-01-21T08:52:43.770Z,96035.56
2023-01-21T08:55:12.744Z,96038.25
2023-01-21T08:57:41.631Z,96040.84
2023-01-21T09:00:11.530Z,96045.41
2023-01-21T09:02:39.975Z,96039.91
2023-01-21T09:05:09.554Z,96039.59
2023-01-21T09:07:38.280Z,96018.09
2023-01-21T09:10:09.841Z,96043.72
2023-01-21T09:12:38.955Z,96051.00
2023-01-21T09:15:08.777Z,96060.63
2023-01-21T09:17:46.925Z,96062.28
2023-01-21T09:20:15.764Z,96063.56
2023-01-21T09:22:47.788Z,96069.34
2023-01-21T09:25:18.344Z,96074.13
2023-01-21T09:27:47.850Z,96072.09
2023-01-21T09:30:17.356Z,96042.34
2023-01-21T09:32:49.261Z,96065.06
2023-01-21T09:35:18.399Z,96064.69
2023-01-21T09:37:48.391Z,96067.34
2023-01-21T09:40:18.796Z,96068.34
2023-01-21T09:42:47.537Z,96055.44
2023-01-21T09:45:16.906Z,96061.91
2023-01-21T09:47:46.842Z,96072.09
2023-01-21T09:50:16.897Z,96060.47
2023-01-21T09:52:47.423Z,96061.53
2023-01-21T09:55:19.194Z,96058.84
2023-01-21T09:58:02.183Z,96064.69
2023-01-21T10:00:36.235Z,96049.56
2023-01-21T10:03:14.858Z,96054.59
2023-01-21T10:06:10.102Z,96056.19
2023-01-21T10:08:49.564Z,96060.13
2023-01-21T10:11:32.141Z,96059.84
2023-01-21T10:14:09.610Z,96050.06
2023-01-21T10:16:42.432Z,96062.81
2023-01-21T10:19:22.254Z,96054.66
2023-01-21T10:21:53.326Z,96042.94
2023-01-21T10:24:24.090Z,96041.84
2023-01-21T10:26:55.963Z,96047.63
2023-01-21T10:29:26.227Z,96054.50
2023-01-21T10:31:59.825Z,96049.69
2023-01-21T10:34:31.962Z,96053.22
2023-01-21T10:37:09.025Z,96049.88
2023-01-21T10:39:45.776Z,96051.50
2023-01-21T10:42:39.543Z,96054.38
2023-01-21T10:45:16.187Z,96054.72
2023-01-21T10:50:48.651Z,96048.94
2023-01-21T10:53:29.160Z,96048.81
2023-01-21T10:56:08.699Z,96054.59
2023-01-21T10:58:43.713Z,96046.94
2023-01-21T11:01:18.526Z,96051.97
2023-01-21T11:03:49.165Z,96033.34
2023-01-21T11:06:19.283Z,96039.47
2023-01-21T11:08:51.462Z,96028.19
2023-01-21T11:11:29.261Z,96033.09
2023-01-21T11:13:59.471Z,96027.38
2023-01-21T11:16:43.185Z,96029.84
2023-01-21T11:19:15.789Z,96023.06
2023-01-21T11:22:00.172Z,96027.13
2023-01-21T11:24:30.013Z,96022.56
2023-01-21T11:27:01.421Z,96024.19
2023-01-21T11:29:40.978Z,96030.06
2023-01-21T11:32:18.691Z,96024.69
2023-01-21T11:34:47.759Z,96022.09
2023-01-21T11:37:23.501Z,96021.47
2023-01-21T11:39:55.689Z,96029.66
2023-01-21T11:42:24.418Z,96016.31
2023-01-21T11:45:04.972Z,96014.06
2023-01-21T11:47:39.323Z,96018.88
2023-01-21T11:50:16.216Z,96012.56
2023-01-21T11:52:48.949Z,96010.22
2023-01-21T11:55:23.093Z,96006.38
2023-01-21T11:57:53.954Z,96014.13
2023-01-21T12:00:25.671Z,96002.31
2023-01-21T12:02:56.633Z,95998.25
2023-01-21T12:05:32.611Z,95985.25
2023-01-21T12:08:01.817Z,96001.78
2023-01-21T12:10:33.260Z,95989.53
2023-01-21T12:13:18.449Z,95990.59
2023-01-21T12:15:57.782Z,95989.91
2023-01-21T12:18:36.363Z,95984.97
2023-01-21T12:21:07.621Z,95985.44
2023-01-21T12:23:49.755Z,95981.19
2023-01-21T12:26:28.931Z,95971.84
2023-01-21T12:29:14.397Z,95975.69
2023-01-21T12:31:48.899Z,95962.69
2023-01-21T12:34:22.317Z,95969.25
2023-01-21T12:36:54.914Z,95974.16
2023-01-21T12:39:27.357Z,95971.69
2023-01-21T12:42:04.023Z,95966.59
2023-01-21T12:44:53.974Z,95981.22
2023-01-21T12:47:29.712Z,95986.47
2023-01-21T12:50:07.318Z,95976.09
2023-01-21T12:52:41.261Z,95975.34
2023-01-21T12:55:18.537Z,95978.44
2023-01-21T12:57:51.483Z,95978.69
2023-01-21T13:00:23.504Z,95973.38
2023-01-21T13:02:58.734Z,95974.00
2023-01-21T13:05:32.595Z,95972.00
2023-01-21T13:08:28.773Z,95975.19
2023-01-21T13:11:01.361Z,95986.25
2023-01-21T13:13:33.507Z,95987.56
2023-01-21T13:16:05.213Z,95999.25
2023-01-21T13:18:38.027Z,95995.25
2023-01-21T13:21:11.608Z,95998.03
2023-01-21T13:23:46.736Z,96009.59
2023-01-21T13:26:19.921Z,96014.72
2023-01-21T13:28:54.053Z,96020.00
2023-01-21T13:31:29.200Z,96025.84
2023-01-21T13:34:06.679Z,96019.34
2023-01-21T13:36:46.966Z,96032.09
2023-01-21T13:39:22.148Z,96032.84
2023-01-21T13:42:10.619Z,96032.00
2023-01-21T13:44:56.765Z,96035.22
2023-01-21T13:47:37.316Z,96004.97
2023-01-21T13:50:19.861Z,96048.03
2023-01-21T13:53:08.774Z,96053.25
2023-01-21T13:56:01.720Z,96055.00
2023-01-21T13:58:37.943Z,96054.16
2023-01-21T14:01:11.201Z,96050.59
2023-01-21T14:03:43.330Z,96050.44
2023-01-21T14:06:17.903Z,96053.66
2023-01-21T14:08:49.318Z,96050.38
2023-01-21T14:11:20.680Z,96059.50
2023-01-21T14:14:26.785Z,96057.13
2023-01-21T14:17:25.321Z,96041.81
2023-01-21T14:20:08.471Z,96062.53
2023-01-21T14:22:52.969Z,96066.63
2023-01-21T14:25:32.297Z,96074.88
2023-01-21T14:28:09.031Z,96073.31
2023-01-21T14:30:47.454Z,96072.69
2023-01-21T14:33:19.672Z,96074.38
2023-01-21T14:35:52.676Z,96072.09
2023-01-21T14:38:52.189Z,96080.34
2023-01-21T14:41:21.709Z,96081.44
2023-01-21T14:43:52.707Z,96079.78
2023-01-21T14:46:26.484Z,96086.34
2023-01-21T14:49:01.631Z,96084.94
2023-01-21T14:51:31.976Z,96089.97
2023-01-21T14:54:11.615Z,96091.88
2023-01-21T14:56:40.697Z,96095.13
2023-01-21T14:59:26.561Z,96095.94
2023-01-21T15:02:01.674Z,96094.34
2023-01-21T15:04:32.306Z,96101.72
2023-01-21T15:07:02.617Z,96107.66
2023-01-21T15:09:35.166Z,96111.91
2023-01-21T15:12:07.599Z,96112.88
2023-01-21T15:14:37.645Z,96119.69
2023-01-21T15:17:06.629Z,96118.75
2023-01-21T15:19:36.133Z,96116.16
2023-01-21T15:22:21.173Z,96122.94
2023-01-21T15:25:26.198Z,96129.53
2023-01-21T15:28:38.500Z,96132.03
2023-01-21T15:31:10.229Z,96132.94
2023-01-21T15:33:43.781Z,96138.03
2023-01-21T15:36:21.089Z,96140.72
2023-01-21T15:38:50.291Z,96134.06
2023-01-21T15:41:27.479Z,96144.94
2023-01-21T15:44:07.684Z,96142.41
2023-01-21T15:46:44.253Z,96148.34
2023-01-21T15:49:29.331Z,96150.19
2023-01-21T15:52:06.506Z,96146.78
2023-01-21T15:54:41.422Z,96151.09
2023-01-21T15:57:24.869Z,96154.38
2023-01-21T16:00:04.393Z,96143.72
2023-01-21T16:02:38.930Z,96149.47
2023-01-21T16:05:18.118Z,96151.94
2023-01-21T16:07:56.612Z,96156.19
2023-01-21T16:10:31.749Z,96159.47
2023-01-21T16:13:09.926Z,96158.81
2023-01-21T16:15:56.127Z,96158.88
2023-01-21T16:18:32.007Z,96167.25
2023-01-21T16:21:01.986Z,96164.72
2023-01-21T16:23:35.568Z,96163.00
2023-01-21T16:26:04.596Z,96161.28
2023-01-21T16:28:44.215Z,96169.38
2023-01-21T16:31:12.814Z,96167.63
2023-01-21T16:33:43.633Z,96174.53
2023-01-21T16:36:14.419Z,96171.88
2023-01-21T16:38:44.743Z,96166.84
2023-01-21T16:41:25.276Z,96172.66
2023-01-21T16:43:56.370Z,96174.47
2023-01-21T16:46:29.488Z,96176.91
2023-01-21T16:49:00.336Z,96181.94
2023-01-21T16:51:43.733Z,96179.38
2023-01-21T16:54:29.815Z,96179.41
2023-01-21T16:57:00.462Z,96183.72
2023-01-21T16:59:31.341Z,96185.41
2023-01-21T17:02:00.931Z,96185.53
2023-01-21T17:04:31.975Z,96187.16
2023-01-21T17:07:00.475Z,96185.38
2023-01-21T17:09:34.684Z,96187.81
2023-01-21T17:12:05.696Z,96191.13
2023-01-21T17:14:35.283Z,96186.97
2023-01-21T17:17:06.321Z,96195.25
2023-01-21T17:19:38.951Z,96198.66
2023-01-21T17:22:14.832Z,96189.88
2023-01-21T17:25:00.445Z,96197.31
2023-01-21T17:27:29.251Z,96199.19
2023-01-21T17:30:20.261Z,96204.22
2023-01-21T17:32:55.090Z,96204.22
2023-01-21T17:35:26.218Z,96203.44
2023-01-21T17:37:56.041Z,96200.09
2023-01-21T17:40:26.688Z,96200.81
2023-01-21T17:42:55.751Z,96197.50
2023-01-21T17:45:30.088Z,96208.94
2023-01-21T17:48:11.740Z,96212.25
2023-01-21T17:50:47.975Z,96208.84
2023-01-21T17:53:22.914Z,96209.75
2023-01-21T17:56:02.455Z,96213.97
2023-01-21T17:58:49.691Z,96207.56
2023-01-21T18:01:19.393Z,96210.09
2023-01-21T18:03:47.719Z,96209.13
2023-01-21T18:06:23.376Z,96219.16
2023-01-21T18:08:53.205Z,96214.22
2023-01-21T18:11:22.669Z,96225.97
2023-01-21T18:13:52.739Z,96219.41
2023-01-21T18:16:21.749Z,96219.41
2023-01-21T18:18:50.748Z,96216.13
2023-01-21T18:21:22.121Z,96217.81
2023-01-21T18:23:51.064Z,96221.09
2023-01-21T18:26:31.184Z,96223.66
2023-01-21T18:29:00.146Z,96216.91
2023-01-21T18:31:29.274Z,96204.72
2023-01-21T18:33:58.279Z,96223.59
2023-01-21T18:36:28.655Z,96228.03
2023-01-21T18:38:57.379Z,96232.16
2023-01-21T18:41:53.279Z,96235.31
2023-01-21T18:44:22.589Z,96228.44
2023-01-21T18:46:51.854Z,96218.63
2023-01-21T18:49:21.688Z,96232.59
2023-01-21T18:51:58.963Z,96220.94
2023-01-21T18:54:27.586Z,96226.63
2023-01-21T18:56:58.710Z,96234.09
2023-01-21T18:59:29.930Z,96237.53
2023-01-21T19:01:58.901Z,96237.59
2023-01-21T19:04:27.579Z,96218.75
2023-01-21T19:06:58.039Z,96233.28
2023-01-21T19:09:26.911Z,96239.09
2023-01-21T19:11:56.231Z,96234.91
2023-01-21T19:14:24.969Z,96231.53
2023-01-21T19:16:53.857Z,96245.66
2023-01-21T19:19:22.281Z,96241.50
2023-01-21T19:21:52.402Z,96239.66
2023-01-21T19:24:22.715Z,96243.84
2023-01-21T19:26:52.069Z,96238.88
2023-01-21T19:29:25.172Z,96243.84
2023-01-21T19:31:53.948Z,96253.13
2023-01-21T19:34:25.379Z,96253.13
2023-01-21T19:36:54.444Z,96248.31
2023-01-21T19:39:25.713Z,96255.03
2023-01-21T19:42:07.397Z,96256.78
2023-01-21T19:44:37.008Z,96253.47
2023-01-21T19:47:05.648Z,96257.50
2023-01-21T19:49:34.633Z,96250.78
2023-01-21T19:52:04.550Z,96247.53
2023-01-21T19:54:34.883Z,96253.41
2023-01-21T19:57:03.964Z,96250.22
2023-01-21T19:59:34.886Z,96250.31
2023-01-21T20:02:03.678Z,96253.59
2023-01-21T20:04:32.343Z,96256.06
2023-01-21T20:07:00.960Z,96254.53
2023-01-21T20:09:29.786Z,96261.97
2023-01-21T20:12:02.057Z,96261.91
2023-01-21T20:14:32.723Z,96258.53
2023-01-21T20:17:03.267Z,96271.06
2023-01-21T20:19:31.957Z,96271.06
2023-01-21T20:22:02.678Z,96267.56
2023-01-21T20:24:34.203Z,96278.47
2023-01-21T20:27:06.712Z,96282.72
2023-01-21T20:29:40.072Z,96286.06
2023-01-21T20:32:13.108Z,96283.66
2023-01-21T20:34:41.991Z,96287.84
2023-01-21T20:37:11.612Z,96288.81
2023-01-21T20:39:40.314Z,96274.78
2023-01-21T20:42:13.584Z,96295.41
2023-01-21T20:44:47.875Z,96295.47
2023-01-21T20:47:32.692Z,96298.81
2023-01-21T20:50:18.802Z,96306.34
2023-01-21T20:52:47.288Z,96297.13
2023-01-21T20:55:20.918Z,96304.56
2023-01-21T20:57:51.221Z,96314.63
2023-01-21T21:00:22.108Z,96308.81
2023-01-21T21:02:50.788Z,96308.03
2023-01-21T21:05:20.052Z,96313.13
2023-01-21T21:07:49.454Z,96313.03
2023-01-21T21:10:22.607Z,96317.22
2023-01-21T21:12:59.714Z,96323.91
2023-01-21T21:15:31.783Z,96326.44
2023-01-21T21:18:01.565Z,96326.38
2023-01-21T21:20:31.655Z,96325.59
2023-01-21T21:23:02.174Z,96329.94
2023-01-21T21:25:32.739Z,96330.00
2023-01-21T21:28:02.933Z,96330.16
2023-01-21T21:30:37.210Z,96328.53
2023-01-21T21:33:05.837Z,96336.09
2023-01-21T21:35:36.577Z,96335.19
2023-01-21T21:38:06.993Z,96327.59
2023-01-21T21:41:49.448Z,96325.06
2023-01-21T21:44:19.762Z,96332.56
2023-01-21T21:47:05.717Z,96328.38
2023-01-21T21:49:34.719Z,96330.84
2023-01-21T21:52:03.237Z,96335.03
2023-01-21T21:54:32.200Z,96335.09
2023-01-21T21:57:01.167Z,96333.38
2023-01-21T21:59:37.828Z,96336.72
2023-01-21T22:02:17.902Z,96337.56
2023-01-21T22:04:46.721Z,96336.66
2023-01-21T22:07:15.688Z,96345.06
2023-01-21T22:09:44.452Z,96343.47
2023-01-21T22:12:13.273Z,96350.22
2023-01-21T22:14:43.169Z,96358.53
2023-01-21T22:17:16.622Z,96348.63
2023-01-21T22:19:45.603Z,96355.34
2023-01-21T22:22:14.115Z,96355.44
2023-01-21T22:24:44.259Z,96355.47
2023-01-21T22:27:13.670Z,96352.13
2023-01-21T22:29:50.063Z,96353.84
2023-01-21T22:32:29.234Z,96349.56
2023-01-21T22:34:58.131Z,96349.75
2023-01-21T22:37:26.682Z,96342.22
2023-01-21T22:39:55.333Z,96341.53
2023-01-21T22:42:24.103Z,96352.19
2023-01-21T22:44:54.564Z,96350.44
2023-01-21T22:47:23.297Z,96358.78
2023-01-21T22:49:52.011Z,96347.16
2023-01-21T22:52:20.846Z,96351.28
2023-01-21T22:54:50.145Z,96353.06
2023-01-21T22:57:19.109Z,96352.22
2023-01-21T22:59:49.480Z,96349.72
2023-01-21T23:02:20.023Z,96346.38
2023-01-21T23:04:48.702Z,96338.13
2023-01-21T23:07:17.327Z,96337.50
2023-01-21T23:09:45.893Z,96344.16
2023-01-21T23:12:18.884Z,96343.47
2023-01-21T23:14:48.723Z,96342.59
2023-01-21T23:17:17.940Z,96289.06
2023-01-21T23:19:48.557Z,96347.56
2023-01-21T23:22:17.215Z,96343.47
2023-01-21T23:24:45.998Z,96351.00
2023-01-21T23:27:14.550Z,96357.75
2023-01-21T23:29:45.758Z,96360.34
2023-01-21T23:32:14.444Z,96358.81
2023-01-21T23:34:43.810Z,96350.63
2023-01-21T23:37:15.403Z,96346.63
2023-01-21T23:39:44.282Z,96349.41
2023-01-21T23:42:12.919Z,96348.91
2023-01-21T23:44:41.765Z,96349.88
2023-01-21T23:47:10.420Z,96355.88
2023-01-21T23:49:38.900Z,96346.81
2023-01-21T23:52:12.869Z,96359.38
2023-01-21T23:54:45.279Z,96359.56
2023-01-21T23:57:14.136Z,96353.09
2023-01-21T23:59:42.933Z,96370.72
